Time;durP1;ratioP1;P1;durP2;ratioP2;P2;SDS_P1;SDS_P2;PMS_P1;PMS_P2;Temp;Humidity;BMP_temperature;BMP_pressure;BME280_temperature;BME280_humidity;BME280_pressure;Samples;Min_cycle;Max_cycle;Signal;HPM_P1;HPM_P2
2021/06/22 00:00:05;;;;;;;;;;;;;;;;;;5138499;27;11185;-63
2021/06/22 00:02:31;;;;;;;;;;;;;;;;;;5138202;27;11235;-63
2021/06/22 00:04:56;;;;;;;;;;;;;;;;;;5135486;27;11503;-63
2021/06/22 00:07:22;;;;;;;;;;;;;;;;;;5137279;27;11960;-61
2021/06/22 00:09:48;;;;;;;;;;;;;;;;;;5137067;27;13112;-62
2021/06/22 00:12:13;;;;;;;;;;;;;;;;;;5136614;27;12038;-61
2021/06/22 00:14:39;;;;;;;;;;;;;;;;;;5136470;27;12010;-61
2021/06/22 00:17:05;;;;;;;;;;;;;;;;;;5135864;27;11556;-59
2021/06/22 00:19:30;;;;;;;;;;;;;;;;;;5137294;27;12139;-59
2021/06/22 00:21:56;;;;;;;;;;;;;;;;;;5133407;27;11219;-59
2021/06/22 00:24:22;;;;;;;;;;;;;;;;;;5135041;27;11275;-59
2021/06/22 00:26:48;;;;;;;;;;;;;;;;;;5137255;27;11923;-59
2021/06/22 00:29:13;;;;;;;;;;;;;;;;;;5136399;27;12275;-59
2021/06/22 00:31:39;;;;;;;;;;;;;;;;;;5137221;27;11461;-59
2021/06/22 00:34:05;;;;;;;;;;;;;;;;;;5137045;27;11677;-59
2021/06/22 00:36:31;;;;;;;;;;;;;;;;;;5117988;27;13431;-59
2021/06/22 00:38:56;;;;;;;;;;;;;;;;;;5137148;27;11599;-59
2021/06/22 00:41:22;;;;;;;;;;;;;;;;;;5134252;27;11382;-58
2021/06/22 00:43:48;;;;;;;;;;;;;;;;;;5130858;27;11714;-58
2021/06/22 00:46:14;;;;;;;;;;;;;;;;;;5130341;27;11972;-57
2021/06/22 00:48:39;;;;;;;;;;;;;;;;;;5135616;27;11243;-57
2021/06/22 00:51:05;;;;;;;;;;;;;;;;;;5137264;27;13137;-58
2021/06/22 00:53:30;;;;;;;;;;;;;;;;;;5134398;27;11499;-57
2021/06/22 00:55:57;;;;;;;;;;;;;;;;;;5135669;27;12608;-57
2021/06/22 00:58:22;;;;;;;;;;;;;;;;;;5135619;27;12156;-57
2021/06/22 01:00:48;;;;;;;;;;;;;;;;;;5136868;27;12029;-57
2021/06/22 01:03:14;;;;;;;;;;;;;;;;;;5136678;27;11313;-57
2021/06/22 01:05:40;;;;;;;;;;;;;;;;;;5136889;27;12677;-58
2021/06/22 01:08:05;;;;;;;;;;;;;;;;;;5136304;27;12162;-62
2021/06/22 01:10:31;;;;;;;;;;;;;;;;;;5131341;27;12379;-58
2021/06/22 01:12:57;;;;;;;;;;;;;;;;;;5136050;27;12063;-58
2021/06/22 01:15:22;;;;;;;;;;;;;;;;;;5136803;27;11474;-58
2021/06/22 01:17:48;;;;;;;;;;;;;;;;;;5117996;27;13376;-59
2021/06/22 01:20:14;;;;;;;;;;;;;;;;;;5136408;27;12511;-60
2021/06/22 01:22:40;;;;;;;;;;;;;;;;;;5118834;27;11411;-59
2021/06/22 01:25:06;;;;;;;;;;;;;;;;;;5137499;27;12599;-59
2021/06/22 01:27:31;;;;;;;;;;;;;;;;;;5137508;27;12191;-58
2021/06/22 01:29:57;;;;;;;;;;;;;;;;;;5137246;27;11937;-59
2021/06/22 01:32:23;;;;;;;;;;;;;;;;;;5136865;27;12028;-58
2021/06/22 01:34:49;;;;;;;;;;;;;;;;;;5125518;27;12592;-58
2021/06/22 01:37:14;;;;;;;;;;;;;;;;;;5116998;27;12261;-59
2021/06/22 01:39:40;;;;;;;;;;;;;;;;;;5115677;28;12230;-58
2021/06/22 01:42:06;;;;;;;;;;;;;;;;;;5116380;28;11223;-59
2021/06/22 01:44:32;;;;;;;;;;;;;;;;;;5116104;28;12645;-59
2021/06/22 01:46:57;;;;;;;;;;;;;;;;;;5116179;28;12264;-58
2021/06/22 01:49:23;;;;;;;;;;;;;;;;;;5115515;28;12030;-58
2021/06/22 01:51:49;;;;;;;;;;;;;;;;;;5116410;27;11895;-59
2021/06/22 01:54:15;;;;;;;;;;;;;;;;;;5115640;27;11698;-59
2021/06/22 01:56:46;;;;;;;;;;;;;;;;;;5097451;28;11415;-58
2021/06/22 01:59:12;;;;;;;;;;;;;;;;;;5116695;28;12020;-59
2021/06/22 02:01:38;;;;;;;;;;;;;;;;;;5116662;28;12089;-59
2021/06/22 02:04:03;;;;;;;;;;;;;;;;;;5118481;27;12798;-58
2021/06/22 02:15:20;;;;;;;;;;;;;;;;;;5148335;27;11334;-59
2021/06/22 02:17:46;;;;;;;;;;;;;;;;;;5135431;27;12405;-59
2021/06/22 02:20:12;;;;;;;;;;;;;;;;;;5137565;27;11937;-57
2021/06/22 02:22:37;;;;;;;;;;;;;;;;;;5135185;27;11887;-58
2021/06/22 02:25:02;;;;;;;;;;;;;;;;;;5135343;27;11750;-57
2021/06/22 02:27:28;;;;;;;;;;;;;;;;;;5132269;27;12017;-56
2021/06/22 02:29:54;;;;;;;;;;;;;;;;;;5135135;27;11343;-57
2021/06/22 02:32:20;;;;;;;;;;;;;;;;;;5134603;27;11371;-57
2021/06/22 02:34:45;;;;;;;;;;;;;;;;;;5134678;27;12203;-58
2021/06/22 02:37:11;;;;;;;;;;;;;;;;;;5134715;27;11918;-57
2021/06/22 02:39:37;;;;;;;;;;;;;;;;;;5131319;27;12013;-59
2021/06/22 02:42:02;;;;;;;;;;;;;;;;;;5135153;27;11950;-60
2021/06/22 02:44:28;;;;;;;;;;;;;;;;;;5132008;27;11130;-58
2021/06/22 02:57:45;;;;;;;;;;;;;;;;;;5148936;27;12110;-53
2021/06/22 03:00:42;;;;;;;;;;;;;;;;;;5110775;27;11978;-48
2021/06/22 03:03:07;;;;;;;;;;;;;;;;;;5113188;27;11237;-47
2021/06/22 03:05:33;;;;;;;;;;;;;;;;;;5112336;28;11439;-47
2021/06/22 03:34:01;;;;;;;;;;;;;;;;;;5049790;28;7523;-69
2021/06/22 03:36:27;;;;;;;;;;;;;;;;;;5050882;28;7685;-69
2021/06/22 03:38:52;;;;;;;;;;;;;;;;;;5047551;28;7538;-69
2021/06/22 03:41:18;;;;;;;;;;;;;;;;;;5050659;28;7510;-70
2021/06/22 03:43:43;;;;;;;;;;;;;;;;;;5048116;28;7553;-68
2021/06/22 03:46:10;;;;;;;;;;;;;;;;;;5047686;28;7605;-66
2021/06/22 03:48:35;;;;;;;;;;;;;;;;;;5048018;28;7544;-65
2021/06/22 03:51:02;;;;;;;;;;;;;;;;;;5049636;28;7593;-65
2021/06/22 03:53:27;;;;;;;;;;;;;;;;;;5048881;28;7522;-65
2021/06/22 03:55:53;;;;;;;;;;;;;;;;;;5049466;28;7519;-66
2021/06/22 03:58:18;;;;;;;;;;;;;;;;;;5049652;28;7511;-68
2021/06/22 04:00:44;;;;;;;;;;;;;;;;;;5048763;28;7511;-61
2021/06/22 04:03:16;;;;;;;;;;;;;;;;;;5046700;28;7515;-62
2021/06/22 04:05:42;;;;;;;;;;;;;;;;;;5048079;28;7503;-62
2021/06/22 04:08:07;;;;;;;;;;;;;;;;;;5048027;28;7544;-62
2021/06/22 04:10:33;;;;;;;;;;;;;;;;;;5040691;28;7499;-62
2021/06/22 04:12:59;;;;;;;;;;;;;;;;;;5035825;28;7527;-62
2021/06/22 04:15:25;;;;;;;;;;;;;;;;;;5039233;28;7618;-62
2021/06/22 04:17:50;;;;;;;;;;;;;;;;;;5039327;28;7572;-62
2021/06/22 04:20:16;;;;;;;;;;;;;;;;;;5040670;28;7519;-62
2021/06/22 04:22:42;;;;;;;;;;;;;;;;;;5036281;28;7535;-62
2021/06/22 04:25:08;;;;;;;;;;;;;;;;;;5039709;28;7511;-62
2021/06/22 04:27:33;;;;;;;;;;;;;;;;;;5040074;28;7515;-61
2021/06/22 04:30:00;;;;;;;;;;;;;;;;;;5035398;28;7523;-62
2021/06/22 04:32:25;;;;;;;;;;;;;;;;;;5033256;28;7546;-61
2021/06/22 04:34:52;;;;;;;;;;;;;;;;;;5039188;28;7594;-62
2021/06/22 04:37:17;;;;;;;;;;;;;;;;;;5039729;28;7519;-61
2021/06/22 04:39:43;;;;;;;;;;;;;;;;;;5038815;28;7511;-60
2021/06/22 04:42:08;;;;;;;;;;;;;;;;;;5040338;28;7534;-64
2021/06/22 04:44:34;;;;;;;;;;;;;;;;;;5030811;28;7584;-68
2021/06/22 04:47:00;;;;;;;;;;;;;;;;;;5025966;28;7503;-66
2021/06/22 04:49:26;;;;;;;;;;;;;;;;;;5023447;28;7545;-66
2021/06/22 04:51:51;;;;;;;;;;;;;;;;;;5026486;28;7521;-70
2021/06/22 04:54:18;;;;;;;;;;;;;;;;;;5029090;28;7507;-64
2021/06/22 04:56:43;;;;;;;;;;;;;;;;;;5034176;28;7554;-65
2021/06/22 04:59:09;;;;;;;;;;;;;;;;;;5039033;28;7526;-65
2021/06/22 05:01:34;;;;;;;;;;;;;;;;;;5035161;28;7511;-65
2021/06/22 05:04:00;;;;;;;;;;;;;;;;;;5033712;28;7515;-64
2021/06/22 05:06:25;;;;;;;;;;;;;;;;;;5035781;28;7534;-64
2021/06/22 05:08:51;;;;;;;;;;;;;;;;;;5035870;28;7527;-64
2021/06/22 05:11:17;;;;;;;;;;;;;;;;;;5036298;28;7545;-64
2021/06/22 05:13:43;;;;;;;;;;;;;;;;;;5035870;28;7526;-65
2021/06/22 05:16:08;;;;;;;;;;;;;;;;;;5036019;28;7503;-65
2021/06/22 05:18:34;;;;;;;;;;;;;;;;;;5036210;28;7519;-65
2021/06/22 05:21:00;;;;;;;;;;;;;;;;;;5035889;28;7511;-64
2021/06/22 05:23:25;;;;;;;;;;;;;;;;;;5036046;28;7539;-65
2021/06/22 05:25:51;;;;;;;;;;;;;;;;;;5035828;28;7523;-65
2021/06/22 05:28:17;;;;;;;;;;;;;;;;;;5034919;28;7519;-64
2021/06/22 05:30:43;;;;;;;;;;;;;;;;;;5030703;28;7503;-66
2021/06/22 05:33:08;;;;;;;;;;;;;;;;;;5025662;28;7519;-67
2021/06/22 05:35:34;;;;;;;;;;;;;;;;;;5022413;28;7549;-67
2021/06/22 05:37:59;;;;;;;;;;;;;;;;;;5022275;28;7515;-67
2021/06/22 05:40:25;;;;;;;;;;;;;;;;;;5021380;28;7574;-67
2021/06/22 05:42:51;;;;;;;;;;;;;;;;;;5021962;28;7526;-67
2021/06/22 05:45:17;;;;;;;;;;;;;;;;;;5020939;28;7510;-67
2021/06/22 05:47:42;;;;;;;;;;;;;;;;;;5017963;28;7614;-67
2021/06/22 05:50:08;;;;;;;;;;;;;;;;;;5022404;28;7576;-67
2021/06/22 05:52:34;;;;;;;;;;;;;;;;;;5021368;28;7530;-67
2021/06/22 05:55:00;;;;;;;;;;;;;;;;;;5023275;28;7507;-67
2021/06/22 05:57:25;;;;;;;;;;;;;;;;;;5021560;28;7580;-67
2021/06/22 05:59:51;;;;;;;;;;;;;;;;;;5023008;28;7614;-67
2021/06/22 06:02:17;;;;;;;;;;;;;;;;;;5023985;28;7519;-65
2021/06/22 06:04:43;;;;;;;;;;;;;;;;;;5025931;28;7515;-64
2021/06/22 06:07:08;;;;;;;;;;;;;;;;;;5017943;28;7964;-63
2021/06/22 06:09:34;;;;;;;;;;;;;;;;;;5019222;28;7535;-65
2021/06/22 06:12:00;;;;;;;;;;;;;;;;;;5028149;28;7570;-65
2021/06/22 06:14:25;;;;;;;;;;;;;;;;;;5025114;28;7597;-65
2021/06/22 06:16:51;;;;;;;;;;;;;;;;;;5021571;28;7503;-64
2021/06/22 06:19:17;;;;;;;;;;;;;;;;;;5024432;28;7518;-64
2021/06/22 06:21:42;;;;;;;;;;;;;;;;;;5025406;28;7533;-64
2021/06/22 06:24:08;;;;;;;;;;;;;;;;;;5024903;28;7511;-69
2021/06/22 06:27:01;;;;;;;;;;;;;;;;;;5025721;28;7516;-67
2021/06/22 06:29:32;;;;;;;;;;;;;;;;;;5022867;28;7500;-67
2021/06/22 06:31:57;;;;;;;;;;;;;;;;;;5024407;28;7641;-68
2021/06/22 06:34:23;;;;;;;;;;;;;;;;;;5022588;28;7530;-68
2021/06/22 06:36:48;;;;;;;;;;;;;;;;;;5016010;28;7530;-68
2021/06/22 06:39:14;;;;;;;;;;;;;;;;;;5023413;28;7519;-68
2021/06/22 06:41:40;;;;;;;;;;;;;;;;;;5032968;28;7515;-68
2021/06/22 06:44:05;;;;;;;;;;;;;;;;;;5032540;28;7610;-67
2021/06/22 06:46:31;;;;;;;;;;;;;;;;;;5032647;28;7617;-68
2021/06/22 06:48:56;;;;;;;;;;;;;;;;;;5016826;28;7508;-68
2021/06/22 06:51:23;;;;;;;;;;;;;;;;;;5012476;28;7525;-68
2021/06/22 06:53:48;;;;;;;;;;;;;;;;;;5019043;28;7991;-68
2021/06/22 06:56:14;;;;;;;;;;;;;;;;;;5022526;28;7515;-66
2021/06/22 06:58:39;;;;;;;;;;;;;;;;;;5026406;28;7521;-70
2021/06/22 07:01:05;;;;;;;;;;;;;;;;;;5022054;28;7523;-64
2021/06/22 07:03:31;;;;;;;;;;;;;;;;;;5025628;28;7507;-64
2021/06/22 07:05:57;;;;;;;;;;;;;;;;;;5025678;28;7537;-64
2021/06/22 07:08:22;;;;;;;;;;;;;;;;;;5023635;28;7569;-63
2021/06/22 07:10:48;;;;;;;;;;;;;;;;;;5020258;28;7507;-65
2021/06/22 07:13:16;;;;;;;;;;;;;;;;;;5021322;28;7530;-67
2021/06/22 07:15:42;;;;;;;;;;;;;;;;;;5032448;28;7519;-69
2021/06/22 07:18:07;;;;;;;;;;;;;;;;;;5033478;28;7975;-68
2021/06/22 07:38:01;;;;;;;;;;;;;;;;;;5118830;27;7529;-68
2021/06/22 07:40:27;;;;;;;;;;;;;;;;;;5118881;28;7517;-65
2021/06/22 09:32:36;;;;;;;;;;;;;;;;;;5098114;27;19921;-63
2021/06/22 09:35:03;;;;;;;;;;;;;;;;;;5110306;28;19913;-65
2021/06/22 09:37:29;;;;;;;;;;;;;;;;;;5110256;28;19908;-62
2021/06/22 09:39:55;;;;;;;;;;;;;;;;;;5110155;28;19930;-61
2021/06/22 09:42:21;;;;;;;;;;;;;;;;;;5110150;28;19912;-62
2021/06/22 09:44:48;;;;;;;;;;;;;;;;;;5109952;28;20325;-62
2021/06/22 09:47:14;;;;;;;;;;;;;;;;;;5106937;28;19920;-60
2021/06/22 09:49:41;;;;;;;;;;;;;;;;;;5091090;28;19913;-61
2021/06/22 09:52:12;;;;;;;;;;;;;;;;;;5089047;28;19969;-63
2021/06/22 09:54:39;;;;;;;;;;;;;;;;;;5095279;28;20174;-60
2021/06/22 09:57:05;;;;;;;;;;;;;;;;;;5088197;28;19936;-62
2021/06/22 09:59:31;;;;;;;;;;;;;;;;;;5087966;28;19909;-59
2021/06/22 10:01:57;;;;;;;;;;;;;;;;;;5087947;28;19920;-60
2021/06/22 10:04:24;;;;;;;;;;;;;;;;;;5088033;28;19913;-61
2021/06/22 10:06:50;;;;;;;;;;;;;;;;;;5087596;28;20423;-60
2021/06/22 10:09:16;;;;;;;;;;;;;;;;;;5087865;28;19961;-59
2021/06/22 10:11:42;;;;;;;;;;;;;;;;;;5087783;28;19928;-60
2021/06/22 10:14:09;;;;;;;;;;;;;;;;;;5087747;28;19923;-60
2021/06/22 10:16:35;;;;;;;;;;;;;;;;;;5087705;28;19962;-60
2021/06/22 10:19:01;;;;;;;;;;;;;;;;;;5090081;28;19932;-61
2021/06/22 10:21:28;;;;;;;;;;;;;;;;;;5092003;28;19912;-61
2021/06/22 10:23:54;;;;;;;;;;;;;;;;;;5085360;28;19908;-61
2021/06/22 10:26:20;;;;;;;;;;;;;;;;;;5087634;28;20369;-61
2021/06/22 10:28:46;;;;;;;;;;;;;;;;;;5087680;28;19909;-60
2021/06/22 10:31:13;;;;;;;;;;;;;;;;;;5086993;28;20386;-60
2021/06/22 10:33:39;;;;;;;;;;;;;;;;;;5085301;28;19912;-60
2021/06/22 10:36:05;;;;;;;;;;;;;;;;;;5087307;28;19908;-60
2021/06/22 10:38:31;;;;;;;;;;;;;;;;;;5087349;28;19920;-61
2021/06/22 10:40:57;;;;;;;;;;;;;;;;;;5087283;28;19917;-61
2021/06/22 10:43:24;;;;;;;;;;;;;;;;;;5073161;28;20005;-61
2021/06/22 10:45:50;;;;;;;;;;;;;;;;;;5074668;28;19919;-61
2021/06/22 10:48:16;;;;;;;;;;;;;;;;;;5074706;28;20049;-61
2021/06/22 10:50:42;;;;;;;;;;;;;;;;;;5074434;28;19943;-62
2021/06/22 10:53:09;;;;;;;;;;;;;;;;;;5074972;28;19913;-62
2021/06/22 10:55:37;;;;;;;;;;;;;;;;;;5075737;28;19919;-61
2021/06/22 10:58:03;;;;;;;;;;;;;;;;;;5075622;28;19908;-61
2021/06/22 11:00:30;;;;;;;;;;;;;;;;;;5074690;28;19912;-61
2021/06/22 11:02:56;;;;;;;;;;;;;;;;;;5074941;28;19982;-62
2021/06/22 11:05:22;;;;;;;;;;;;;;;;;;5073694;28;19970;-61
2021/06/22 11:07:48;;;;;;;;;;;;;;;;;;5074622;28;20364;-62
2021/06/22 11:10:15;;;;;;;;;;;;;;;;;;5074691;28;19913;-61
2021/06/22 11:12:41;;;;;;;;;;;;;;;;;;5073274;28;19916;-63
2021/06/22 11:15:07;;;;;;;;;;;;;;;;;;5075617;28;19912;-63
2021/06/22 11:17:33;;;;;;;;;;;;;;;;;;5093338;28;19912;-63
2021/06/22 11:19:59;;;;;;;;;;;;;;;;;;5095536;28;20006;-63
2021/06/22 11:22:26;;;;;;;;;;;;;;;;;;5095454;28;19909;-62
2021/06/22 11:24:52;;;;;;;;;;;;;;;;;;5095372;28;19919;-63
2021/06/22 11:27:18;;;;;;;;;;;;;;;;;;5089712;28;19908;-63
2021/06/22 11:29:44;;;;;;;;;;;;;;;;;;5075566;28;19908;-63
2021/06/22 11:32:11;;;;;;;;;;;;;;;;;;5075010;28;19920;-63
2021/06/22 11:34:37;;;;;;;;;;;;;;;;;;5077958;28;19908;-63
2021/06/22 11:37:03;;;;;;;;;;;;;;;;;;5076632;28;20225;-63
2021/06/22 11:39:29;;;;;;;;;;;;;;;;;;5078639;28;19912;-65
2021/06/22 11:41:56;;;;;;;;;;;;;;;;;;5087760;28;19936;-64
2021/06/22 11:44:22;;;;;;;;;;;;;;;;;;5088872;28;19915;-64
2021/06/22 11:46:48;;;;;;;;;;;;;;;;;;5077549;28;19951;-64
2021/06/22 11:49:14;;;;;;;;;;;;;;;;;;5075150;28;19966;-64
2021/06/22 11:51:40;;;;;;;;;;;;;;;;;;5074950;28;19916;-64
2021/06/22 11:54:07;;;;;;;;;;;;;;;;;;5073878;28;19913;-62
2021/06/22 11:56:33;;;;;;;;;;;;;;;;;;5074638;28;19909;-63
2021/06/22 11:58:59;;;;;;;;;;;;;;;;;;5074636;28;19909;-64
2021/06/22 12:01:25;;;;;;;;;;;;;;;;;;5075451;28;19955;-64
2021/06/22 12:03:51;;;;;;;;;;;;;;;;;;5073971;28;19993;-64
2021/06/22 12:06:18;;;;;;;;;;;;;;;;;;5073322;28;19940;-64
2021/06/22 12:08:44;;;;;;;;;;;;;;;;;;5070808;28;19971;-63
2021/06/22 12:11:12;;;;;;;;;;;;;;;;;;5072869;28;20007;-65
2021/06/22 12:13:38;;;;;;;;;;;;;;;;;;5072772;28;19909;-64
2021/06/22 12:16:04;;;;;;;;;;;;;;;;;;5072551;28;19920;-63
2021/06/22 12:18:30;;;;;;;;;;;;;;;;;;5071017;28;19916;-64
2021/06/22 12:20:57;;;;;;;;;;;;;;;;;;5070575;28;19920;-64
2021/06/22 12:23:23;;;;;;;;;;;;;;;;;;5072825;28;19912;-64
2021/06/22 12:25:49;;;;;;;;;;;;;;;;;;5073041;28;19969;-64
2021/06/22 12:28:16;;;;;;;;;;;;;;;;;;5072643;28;19908;-64
2021/06/22 12:30:42;;;;;;;;;;;;;;;;;;5072960;28;20433;-64
2021/06/22 12:33:08;;;;;;;;;;;;;;;;;;5073085;28;19935;-63
2021/06/22 12:35:34;;;;;;;;;;;;;;;;;;5072582;28;19909;-63
2021/06/22 12:38:00;;;;;;;;;;;;;;;;;;5072293;28;19925;-63
2021/06/22 12:40:27;;;;;;;;;;;;;;;;;;5072396;28;19912;-63
2021/06/22 12:42:53;;;;;;;;;;;;;;;;;;5054393;28;20330;-63
2021/06/22 12:45:19;;;;;;;;;;;;;;;;;;5061621;28;19912;-66
2021/06/22 12:47:45;;;;;;;;;;;;;;;;;;5072069;28;19965;-66
2021/06/22 12:50:12;;;;;;;;;;;;;;;;;;5072999;28;19943;-66
2021/06/22 12:52:38;;;;;;;;;;;;;;;;;;5093526;28;19920;-66
2021/06/22 12:55:04;;;;;;;;;;;;;;;;;;5076726;28;19919;-67
2021/06/22 12:57:32;;;;;;;;;;;;;;;;;;5062155;28;19977;-66
2021/06/22 12:59:58;;;;;;;;;;;;;;;;;;5073602;28;19913;-66
2021/06/22 13:02:25;;;;;;;;;;;;;;;;;;5073343;28;20253;-67
2021/06/22 13:04:51;;;;;;;;;;;;;;;;;;5073364;28;20003;-66
2021/06/22 13:07:17;;;;;;;;;;;;;;;;;;5073046;28;19952;-68
2021/06/22 13:09:43;;;;;;;;;;;;;;;;;;5073348;28;19909;-69
2021/06/22 13:12:10;;;;;;;;;;;;;;;;;;5072323;28;20315;-67
2021/06/22 13:14:38;;;;;;;;;;;;;;;;;;5073207;28;20363;-68
2021/06/22 13:17:05;;;;;;;;;;;;;;;;;;5072925;28;20336;-67
2021/06/22 13:19:31;;;;;;;;;;;;;;;;;;5073027;28;19991;-68
2021/06/22 13:21:57;;;;;;;;;;;;;;;;;;5073110;28;19912;-68
2021/06/22 13:24:23;;;;;;;;;;;;;;;;;;5073004;28;19909;-68
2021/06/22 13:26:50;;;;;;;;;;;;;;;;;;5073078;28;19913;-68
2021/06/22 13:29:16;;;;;;;;;;;;;;;;;;5073119;28;20336;-67
2021/06/22 13:31:42;;;;;;;;;;;;;;;;;;5072567;28;19982;-68
2021/06/22 13:34:11;;;;;;;;;;;;;;;;;;5072970;28;19962;-68
2021/06/22 13:36:39;;;;;;;;;;;;;;;;;;5072553;28;20272;-67
2021/06/22 13:39:06;;;;;;;;;;;;;;;;;;5073019;28;19970;-67
2021/06/22 13:41:32;;;;;;;;;;;;;;;;;;5073478;28;19913;-68
2021/06/22 13:43:58;;;;;;;;;;;;;;;;;;5071752;28;19917;-68
2021/06/22 13:46:29;;;;;;;;;;;;;;;;;;5052336;28;20009;-67
2021/06/22 13:48:55;;;;;;;;;;;;;;;;;;5071255;28;19913;-68
2021/06/22 13:51:21;;;;;;;;;;;;;;;;;;5071591;28;19928;-69
2021/06/22 13:53:48;;;;;;;;;;;;;;;;;;5072648;28;19916;-67
2021/06/22 13:56:15;;;;;;;;;;;;;;;;;;5071366;28;19908;-67
2021/06/22 13:58:44;;;;;;;;;;;;;;;;;;5066734;28;21133;-69
2021/06/22 14:01:10;;;;;;;;;;;;;;;;;;5068102;28;19959;-67
2021/06/22 14:03:37;;;;;;;;;;;;;;;;;;5070638;28;20017;-66
2021/06/22 14:06:03;;;;;;;;;;;;;;;;;;5071015;28;19966;-63
2021/06/22 14:08:29;;;;;;;;;;;;;;;;;;5070074;28;19930;-63
2021/06/22 14:10:55;;;;;;;;;;;;;;;;;;5070307;28;19928;-64
2021/06/22 14:13:23;;;;;;;;;;;;;;;;;;5071409;28;19927;-63
2021/06/22 14:15:52;;;;;;;;;;;;;;;;;;5070529;28;19912;-65
2021/06/22 14:18:18;;;;;;;;;;;;;;;;;;5072465;28;19921;-65
2021/06/22 14:20:44;;;;;;;;;;;;;;;;;;5073981;28;20003;-66
2021/06/22 14:23:11;;;;;;;;;;;;;;;;;;5073674;28;19920;-64
2021/06/22 14:25:39;;;;;;;;;;;;;;;;;;5075648;28;19958;-65
2021/06/22 14:28:05;;;;;;;;;;;;;;;;;;5074803;28;19920;-65
2021/06/22 14:30:31;;;;;;;;;;;;;;;;;;5074713;28;19924;-64
2021/06/22 14:32:57;;;;;;;;;;;;;;;;;;5074405;28;19912;-65
2021/06/22 14:35:24;;;;;;;;;;;;;;;;;;5075162;28;19917;-66
2021/06/22 14:37:51;;;;;;;;;;;;;;;;;;5075117;28;20244;-66
2021/06/22 14:40:21;;;;;;;;;;;;;;;;;;5075433;28;19968;-64
2021/06/22 14:42:47;;;;;;;;;;;;;;;;;;5074917;28;20065;-63
2021/06/22 14:45:14;;;;;;;;;;;;;;;;;;5074004;28;19917;-64
2021/06/22 14:47:40;;;;;;;;;;;;;;;;;;5073270;28;20042;-66
2021/06/22 14:50:07;;;;;;;;;;;;;;;;;;5072277;28;19972;-65
2021/06/22 14:52:33;;;;;;;;;;;;;;;;;;5070848;28;19927;-65
2021/06/22 14:54:59;;;;;;;;;;;;;;;;;;5071379;28;20091;-65
2021/06/22 14:57:25;;;;;;;;;;;;;;;;;;5073386;28;19909;-65
2021/06/22 14:59:51;;;;;;;;;;;;;;;;;;5072482;28;20012;-65
2021/06/22 15:02:18;;;;;;;;;;;;;;;;;;5072709;28;19916;-64
2021/06/22 15:04:44;;;;;;;;;;;;;;;;;;5072859;28;19919;-65
2021/06/22 15:07:10;;;;;;;;;;;;;;;;;;5072125;28;19920;-63
2021/06/22 15:09:37;;;;;;;;;;;;;;;;;;5074222;28;19908;-63
2021/06/22 15:12:04;;;;;;;;;;;;;;;;;;5073651;28;19921;-65
2021/06/22 15:14:30;;;;;;;;;;;;;;;;;;5074448;28;19913;-65
2021/06/22 15:16:56;;;;;;;;;;;;;;;;;;5074072;28;19962;-66
2021/06/22 15:19:24;;;;;;;;;;;;;;;;;;5073915;28;20003;-66
2021/06/22 15:21:50;;;;;;;;;;;;;;;;;;5073572;28;19913;-66
2021/06/22 15:24:17;;;;;;;;;;;;;;;;;;5073305;28;19955;-66
2021/06/22 15:26:43;;;;;;;;;;;;;;;;;;5073215;28;20326;-66
2021/06/22 15:29:09;;;;;;;;;;;;;;;;;;5073580;28;19913;-67
2021/06/22 15:31:35;;;;;;;;;;;;;;;;;;5073735;28;19920;-67
2021/06/22 15:34:01;;;;;;;;;;;;;;;;;;5073364;28;19912;-63
2021/06/22 15:36:28;;;;;;;;;;;;;;;;;;5073164;28;19920;-64
2021/06/22 15:38:54;;;;;;;;;;;;;;;;;;5073642;28;19913;-65
2021/06/22 15:41:20;;;;;;;;;;;;;;;;;;5073294;28;19919;-65
2021/06/22 15:43:46;;;;;;;;;;;;;;;;;;5073011;28;20604;-65
2021/06/22 15:46:13;;;;;;;;;;;;;;;;;;5070818;28;19913;-65
2021/06/22 15:48:40;;;;;;;;;;;;;;;;;;5073700;28;20003;-66
2021/06/22 15:51:06;;;;;;;;;;;;;;;;;;5073874;28;20011;-66
2021/06/22 15:53:32;;;;;;;;;;;;;;;;;;5073347;28;19966;-66
2021/06/22 15:55:58;;;;;;;;;;;;;;;;;;5073594;28;19913;-66
2021/06/22 15:58:25;;;;;;;;;;;;;;;;;;5073311;28;19913;-66
2021/06/22 16:00:53;;;;;;;;;;;;;;;;;;5073219;28;19912;-67
2021/06/22 16:03:19;;;;;;;;;;;;;;;;;;5073346;28;20359;-66
2021/06/22 16:05:45;;;;;;;;;;;;;;;;;;5073491;28;19948;-67
2021/06/22 16:08:11;;;;;;;;;;;;;;;;;;5072995;28;20028;-66
2021/06/22 16:10:37;;;;;;;;;;;;;;;;;;5073079;28;20011;-67
2021/06/22 16:13:04;;;;;;;;;;;;;;;;;;5073003;28;20006;-67
2021/06/22 16:15:32;;;;;;;;;;;;;;;;;;5073169;28;19916;-66
2021/06/22 16:17:58;;;;;;;;;;;;;;;;;;5072938;28;20291;-67
2021/06/22 16:20:28;;;;;;;;;;;;;;;;;;5072350;28;20250;-67
2021/06/22 16:22:54;;;;;;;;;;;;;;;;;;5073106;28;19921;-65
2021/06/22 16:25:20;;;;;;;;;;;;;;;;;;5072581;28;19970;-66
2021/06/22 16:27:46;;;;;;;;;;;;;;;;;;5072942;28;19913;-67
2021/06/22 16:30:13;;;;;;;;;;;;;;;;;;5073235;28;20005;-68
2021/06/22 16:32:39;;;;;;;;;;;;;;;;;;5073965;28;19928;-68
2021/06/22 16:35:05;;;;;;;;;;;;;;;;;;5074389;28;19913;-67
2021/06/22 16:37:31;;;;;;;;;;;;;;;;;;5073079;28;19916;-67
2021/06/22 16:39:58;;;;;;;;;;;;;;;;;;5073077;28;19935;-65
2021/06/22 16:42:24;;;;;;;;;;;;;;;;;;5073526;28;19934;-65
2021/06/22 16:44:50;;;;;;;;;;;;;;;;;;5073739;28;19959;-66
2021/06/22 16:47:16;;;;;;;;;;;;;;;;;;5073754;28;19919;-66
2021/06/22 16:49:42;;;;;;;;;;;;;;;;;;5073208;28;19913;-65
2021/06/22 16:52:09;;;;;;;;;;;;;;;;;;5073371;28;19921;-65
2021/06/22 16:54:35;;;;;;;;;;;;;;;;;;5073849;28;19965;-65
2021/06/22 16:57:01;;;;;;;;;;;;;;;;;;5073630;28;19965;-65
2021/06/22 16:59:27;;;;;;;;;;;;;;;;;;5073547;28;20460;-66
2021/06/22 17:01:54;;;;;;;;;;;;;;;;;;5073675;28;20068;-66
2021/06/22 17:04:20;;;;;;;;;;;;;;;;;;5073052;28;19913;-65
2021/06/22 17:06:48;;;;;;;;;;;;;;;;;;5073513;28;20058;-63
2021/06/22 17:09:14;;;;;;;;;;;;;;;;;;5073399;28;19929;-64
2021/06/22 17:11:40;;;;;;;;;;;;;;;;;;5073330;28;19927;-64
2021/06/22 17:14:06;;;;;;;;;;;;;;;;;;5073374;28;19920;-64
2021/06/22 17:16:33;;;;;;;;;;;;;;;;;;5073252;28;19912;-65
2021/06/22 17:18:59;;;;;;;;;;;;;;;;;;5073039;28;20328;-65
2021/06/22 17:21:25;;;;;;;;;;;;;;;;;;5073160;28;19913;-65
2021/06/22 17:23:51;;;;;;;;;;;;;;;;;;5076594;28;19912;-65
2021/06/22 17:26:18;;;;;;;;;;;;;;;;;;5093320;28;19970;-65
2021/06/22 17:28:44;;;;;;;;;;;;;;;;;;5090576;28;19912;-64
2021/06/22 17:31:10;;;;;;;;;;;;;;;;;;5072786;28;19920;-64
2021/06/22 17:33:36;;;;;;;;;;;;;;;;;;5073189;28;19912;-65
2021/06/22 17:36:03;;;;;;;;;;;;;;;;;;5073105;28;19967;-65
2021/06/22 17:38:29;;;;;;;;;;;;;;;;;;5072953;28;19912;-65
2021/06/22 17:40:55;;;;;;;;;;;;;;;;;;5072172;28;19912;-65
2021/06/22 17:43:21;;;;;;;;;;;;;;;;;;5071088;28;19913;-66
2021/06/22 17:45:47;;;;;;;;;;;;;;;;;;5071362;28;19920;-67
2021/06/22 17:48:14;;;;;;;;;;;;;;;;;;5072667;28;19920;-66
2021/06/22 17:50:40;;;;;;;;;;;;;;;;;;5073010;28;19936;-66
2021/06/22 17:53:06;;;;;;;;;;;;;;;;;;5074638;28;19912;-66
2021/06/22 17:55:36;;;;;;;;;;;;;;;;;;5076905;28;19966;-67
2021/06/22 17:58:02;;;;;;;;;;;;;;;;;;5076600;28;20271;-66
2021/06/22 18:00:29;;;;;;;;;;;;;;;;;;5076437;28;19962;-66
2021/06/22 18:02:55;;;;;;;;;;;;;;;;;;5076338;28;19913;-66
2021/06/22 18:05:21;;;;;;;;;;;;;;;;;;5076817;28;19943;-66
2021/06/22 18:07:48;;;;;;;;;;;;;;;;;;5076850;28;19939;-66
2021/06/22 18:10:14;;;;;;;;;;;;;;;;;;5076370;28;19965;-66
2021/06/22 18:12:40;;;;;;;;;;;;;;;;;;5076715;28;19927;-66
2021/06/22 18:15:06;;;;;;;;;;;;;;;;;;5076338;28;19920;-66
2021/06/22 18:17:33;;;;;;;;;;;;;;;;;;5076487;28;19916;-66
2021/06/22 18:19:59;;;;;;;;;;;;;;;;;;5076688;28;20358;-65
2021/06/22 18:22:25;;;;;;;;;;;;;;;;;;5076334;28;20260;-65
2021/06/22 18:24:51;;;;;;;;;;;;;;;;;;5076607;28;19919;-66
2021/06/22 18:27:18;;;;;;;;;;;;;;;;;;5076229;28;19920;-66
2021/06/22 18:29:44;;;;;;;;;;;;;;;;;;5076408;28;19936;-65
2021/06/22 18:32:10;;;;;;;;;;;;;;;;;;5076080;28;19999;-66
2021/06/22 18:34:36;;;;;;;;;;;;;;;;;;5076402;28;19920;-66
2021/06/22 18:37:03;;;;;;;;;;;;;;;;;;5074918;28;19912;-66
2021/06/22 18:39:29;;;;;;;;;;;;;;;;;;5074495;28;20382;-66
2021/06/22 18:41:55;;;;;;;;;;;;;;;;;;5075095;28;19912;-65
2021/06/22 18:44:21;;;;;;;;;;;;;;;;;;5074852;28;19919;-67
2021/06/22 18:46:48;;;;;;;;;;;;;;;;;;5075042;28;19912;-65
2021/06/22 18:49:14;;;;;;;;;;;;;;;;;;5075026;28;19919;-69
2021/06/22 18:51:42;;;;;;;;;;;;;;;;;;5074660;28;20007;-66
2021/06/22 18:54:09;;;;;;;;;;;;;;;;;;5071996;28;19919;-65
2021/06/22 18:56:35;;;;;;;;;;;;;;;;;;5073452;28;19951;-65
2021/06/22 18:59:01;;;;;;;;;;;;;;;;;;5073662;28;19973;-65
2021/06/22 19:01:27;;;;;;;;;;;;;;;;;;5073919;28;19924;-65
2021/06/22 19:03:53;;;;;;;;;;;;;;;;;;5073392;28;19916;-66
2021/06/22 19:06:20;;;;;;;;;;;;;;;;;;5073694;28;19919;-65
2021/06/22 19:08:46;;;;;;;;;;;;;;;;;;5073798;28;19916;-66
2021/06/22 19:11:12;;;;;;;;;;;;;;;;;;5073779;28;19928;-65
2021/06/22 19:13:38;;;;;;;;;;;;;;;;;;5073716;28;19926;-66
2021/06/22 19:16:05;;;;;;;;;;;;;;;;;;5073953;28;19919;-66
2021/06/22 19:18:36;;;;;;;;;;;;;;;;;;5073785;28;19934;-66
2021/06/22 19:21:02;;;;;;;;;;;;;;;;;;5073266;28;20356;-66
2021/06/22 19:23:28;;;;;;;;;;;;;;;;;;5073130;28;19973;-67
2021/06/22 19:25:54;;;;;;;;;;;;;;;;;;5073692;28;19913;-66
2021/06/22 19:28:20;;;;;;;;;;;;;;;;;;5073226;28;19920;-66
2021/06/22 19:30:47;;;;;;;;;;;;;;;;;;5072611;28;20372;-66
2021/06/22 19:33:13;;;;;;;;;;;;;;;;;;5070620;28;19917;-66